Time,TemperatureF,DewpointF,PressureIn,WindDirection,WindDirectionDegrees,WindSpeedMPH,WindSpeedGustMPH,Humidity,HourlyPrecipIn,Conditions,Clouds,dailyrainin,SoftwareType,DateUTC
2013-01-09 00:03:00,62.6,61.7,29.92,West,270,1.1,0.0,97,0.00,RA,,0.00,WeatherDisplay:10.37,2013-01-09 06:03:00,
2013-01-09 00:08:00,61.7,60.8,29.92,WNW,292,5.8,5.8,97,0.00,RA,,0.00,WeatherDisplay:10.37,2013-01-09 06:08:00,
2013-01-09 00:13:00,59.9,59.0,29.95,West,270,5.8,5.8,97,0.00,OVC,,0.00,WeatherDisplay:10.37,2013-01-09 06:13:00,
2013-01-09 00:18:00,58.3,57.4,29.95,WNW,292,11.5,11.5,97,0.00,OVC,,0.00,WeatherDisplay:10.37,2013-01-09 06:18:00,
2013-01-09 00:23:00,56.8,56.0,29.95,NW,315,10.4,10.4,97,0.00,OVC,,0.00,WeatherDisplay:10.37,2013-01-09 06:23:00,
2013-01-09 00:28:00,55.9,55.1,29.92,NW,315,9.8,9.8,97,0.00,OVC,,0.00,WeatherDisplay:10.37,2013-01-09 06:28:00,
2013-01-09 00:33:00,55.2,54.4,29.92,West,270,11.5,11.5,97,0.00,OVC,,0.00,WeatherDisplay:10.37,2013-01-09 06:33:00,
2013-01-09 00:38:00,54.9,54.0,29.92,West,270,9.2,9.2,97,0.00,OVC,,0.00,WeatherDisplay:10.37,2013-01-09 06:38:00,
2013-01-09 00:43:00,54.5,53.7,29.89,WNW,292,13.8,13.8,97,0.00,OVC,,0.00,WeatherDisplay:10.37,2013-01-09 06:43:00,
2013-01-09 00:48:00,54.3,53.5,29.89,NNW,338,10.4,10.4,97,0.00,OVC,,0.00,WeatherDisplay:10.37,2013-01-09 06:48:00,
2013-01-09 00:53:00,54.3,53.5,29.89,NNE,22,11.5,11.5,97,0.00,OVC,,0.00,WeatherDisplay:10.37,2013-01-09 06:53:00,
2013-01-09 00:58:00,54.3,53.5,29.89,NNW,338,10.4,10.4,97,0.00,OVC,,0.00,WeatherDisplay:10.37,2013-01-09 06:58:00,
2013-01-09 01:03:00,54.3,53.5,29.89,NW,315,13.8,13.8,97,0.00,OVC,,0.00,WeatherDisplay:10.37,2013-01-09 07:03:00,
2013-01-09 01:08:00,54.3,53.5,29.89,North,0,8.1,8.1,97,0.00,OVC,,0.00,WeatherDisplay:10.37,2013-01-09 07:08:00,
2013-01-09 01:13:00,54.7,53.8,29.92,NW,315,8.1,8.1,97,0.00,OVC,,0.00,WeatherDisplay:10.37,2013-01-09 07:13:00,
2013-01-09 01:18:00,55.0,54.2,29.92,North,0,8.1,8.1,97,0.00,OVC,,0.00,WeatherDisplay:10.37,2013-01-09 07:18:00,
2013-01-09 01:24:00,55.2,54.4,29.92,NW,315,5.8,6.2,97,0.00,OVC,,0.00,WeatherDisplay:10.37,2013-01-09 07:24:00,
2013-01-09 01:29:00,55.6,54.7,29.89,NW,315,8.1,8.1,97,0.00,OVC,,0.00,WeatherDisplay:10.37,2013-01-09 07:29:00,
2013-01-09 01:34:00,55.9,55.1,29.89,NE,45,8.1,8.1,97,0.00, +RA,,0.00,WeatherDisplay:10.37,2013-01-09 07:34:00,
2013-01-09 01:39:00,56.1,55.3,29.89,North,0,3.5,4.0,97,0.00, +RA,,0.00,WeatherDisplay:10.37,2013-01-09 07:39:00,
2013-01-09 01:44:00,56.1,55.3,29.92,NNW,338,5.8,5.8,97,0.00, +RA,,0.00,WeatherDisplay:10.37,2013-01-09 07:44:00,
2013-01-09 01:49:00,56.1,55.3,29.92,NW,315,12.1,12.1,97,0.00, +RA,,0.00,WeatherDisplay:10.37,2013-01-09 07:49:00,
2013-01-09 01:54:00,56.1,55.3,29.92,North,0,11.5,11.5,97,0.00, +RA,,0.00,WeatherDisplay:10.37,2013-01-09 07:54:00,
2013-01-09 01:59:00,55.9,55.1,29.92,North,0,5.8,5.8,97,0.00, +RA,,0.00,WeatherDisplay:10.37,2013-01-09 07:59:00,
2013-01-09 02:04:00,56.1,55.3,29.92,NNW,338,9.2,9.2,97,0.00,OVC,,0.00,WeatherDisplay:10.37,2013-01-09 08:04:00,
2013-01-09 02:09:00,56.1,55.3,29.92,NNE,22,9.2,9.2,97,0.00,OVC,,0.00,WeatherDisplay:10.37,2013-01-09 08:09:00,
2013-01-09 02:14:00,56.1,55.3,29.92,North,0,6.9,6.9,97,0.00,OVC,,0.00,WeatherDisplay:10.37,2013-01-09 08:14:00,
2013-01-09 02:19:00,56.3,55.5,29.92,North,0,5.4,5.4,97,0.00,OVC,,0.00,WeatherDisplay:10.37,2013-01-09 08:19:00,
2013-01-09 02:24:00,56.3,55.5,29.92,NE,45,5.8,5.8,97,0.00,-RA,,0.00,WeatherDisplay:10.37,2013-01-09 08:24:00,
2013-01-09 02:29:00,56.5,55.6,29.92,North,0,9.2,9.2,97,0.00,-RA,,0.00,WeatherDisplay:10.37,2013-01-09 08:29:00,
2013-01-09 02:34:00,56.5,55.6,29.92,North,0,5.8,6.4,97,0.00,-RA,,0.00,WeatherDisplay:10.37,2013-01-09 08:34:00,
2013-01-09 02:39:00,56.5,55.6,29.92,North,0,8.5,8.5,97,0.00,-RA,,0.00,WeatherDisplay:10.37,2013-01-09 08:39:00,
2013-01-09 02:44:00,56.3,55.5,29.92,NNW,338,6.9,6.9,97,0.00, +RA,,0.00,WeatherDisplay:10.37,2013-01-09 08:44:00,
2013-01-09 02:49:00,56.1,55.3,29.92,NNW,338,5.8,5.8,97,0.00, +RA,,0.00,WeatherDisplay:10.37,2013-01-09 08:49:00,
2013-01-09 02:54:00,55.9,55.1,29.92,NNE,22,10.4,10.4,97,0.00, +RA,,0.00,WeatherDisplay:10.37,2013-01-09 08:54:00,
2013-01-09 02:59:00,55.8,54.9,29.92,North,0,8.7,8.7,97,0.00, +RA,,0.00,WeatherDisplay:10.37,2013-01-09 08:59:00,
2013-01-09 03:04:00,55.6,54.7,29.92,NNW,338,8.1,8.1,97,0.00,OVC,,0.00,WeatherDisplay:10.37,2013-01-09 09:04:00,
2013-01-09 03:09:00,55.4,54.6,29.92,NNW,338,6.9,6.9,97,0.00,OVC,,0.00,WeatherDisplay:10.37,2013-01-09 09:09:00,
2013-01-09 03:14:00,55.4,54.6,29.92,North,0,9.2,9.2,97,0.00,OVC,,0.00,WeatherDisplay:10.37,2013-01-09 09:14:00,
2013-01-09 03:19:00,55.2,54.4,29.92,NNW,338,5.8,5.8,97,0.00,OVC,,0.00,WeatherDisplay:10.37,2013-01-09 09:19:00,
2013-01-09 03:24:00,55.2,54.4,29.92,North,0,9.2,9.2,97,0.00, +RA,,0.00,WeatherDisplay:10.37,2013-01-09 09:24:00,
2013-01-09 03:29:00,55.2,54.4,29.89,North,0,11.5,11.5,97,0.00, +RA,,0.00,WeatherDisplay:10.37,2013-01-09 09:29:00,
2013-01-09 03:34:00,55.0,54.2,29.89,WSW,248,4.6,4.6,97,0.00, +RA,,0.00,WeatherDisplay:10.37,2013-01-09 09:34:00,
2013-01-09 03:43:00,55.0,54.2,29.92,NW,315,5.4,6.2,97,0.00, +RA,,0.00,WeatherDisplay:10.37,2013-01-09 09:43:00,
2013-01-09 03:48:00,55.0,54.2,29.92,North,0,10.5,10.5,97,0.00, +RA,,0.00,WeatherDisplay:10.37,2013-01-09 09:48:00,
2013-01-09 03:53:00,54.9,54.0,29.92,NNE,22,8.1,8.1,97,0.00,-RA,,0.00,WeatherDisplay:10.37,2013-01-09 09:53:00,
2013-01-09 03:58:00,54.9,54.0,29.89,North,0,8.1,8.1,97,0.00,-RA,,0.00,WeatherDisplay:10.37,2013-01-09 09:58:00,
2013-01-09 04:03:00,54.7,53.8,29.89,North,0,9.2,9.2,97,0.00,-RA,,0.00,WeatherDisplay:10.37,2013-01-09 10:03:00,
2013-01-09 04:08:00,54.7,53.8,29.89,North,0,11.5,11.5,97,0.00,-RA,,0.00,WeatherDisplay:10.37,2013-01-09 10:08:00,
2013-01-09 04:13:00,54.7,53.8,29.86,North,0,8.1,8.1,97,0.00,OVC,,0.00,WeatherDisplay:10.37,2013-01-09 10:13:00,
2013-01-09 04:18:00,54.7,53.8,29.86,NNW,338,9.2,9.2,97,0.00,OVC,,0.00,WeatherDisplay:10.37,2013-01-09 10:18:00,
2013-01-09 04:23:00,54.7,53.8,29.86,NNE,22,6.9,6.9,97,0.00,OVC,,0.00,WeatherDisplay:10.37,2013-01-09 10:23:00,
2013-01-09 04:28:00,54.7,53.8,29.89,North,0,4.6,4.6,97,0.00,OVC,,0.00,WeatherDisplay:10.37,2013-01-09 10:28:00,
2013-01-09 04:33:00,54.7,53.8,29.89,NNW,338,4.6,4.6,97,0.00,OVC,,0.00,WeatherDisplay:10.37,2013-01-09 10:33:00,
2013-01-09 04:39:00,54.9,54.0,29.89,NNE,22,7.4,7.4,97,0.00,OVC,,0.00,WeatherDisplay:10.37,2013-01-09 10:39:00,
2013-01-09 04:44:00,54.9,54.0,29.92,West,270,6.9,6.9,97,0.00,OVC,,0.00,WeatherDisplay:10.37,2013-01-09 10:44:00,
2013-01-09 04:49:00,54.9,54.0,29.92,SW,225,4.6,4.6,97,0.00,OVC,,0.00,WeatherDisplay:10.37,2013-01-09 10:49:00,
2013-01-09 04:54:00,54.9,54.0,29.92,North,0,3.5,3.5,97,0.00,OVC,,0.00,WeatherDisplay:10.37,2013-01-09 10:54:00,
2013-01-09 04:59:00,54.9,54.0,29.89,NNW,338,9.2,9.2,97,0.00,OVC,,0.00,WeatherDisplay:10.37,2013-01-09 10:59:00,
2013-01-09 05:04:00,54.9,54.0,29.89,WNW,292,6.9,6.9,97,0.00,OVC,,0.00,WeatherDisplay:10.37,2013-01-09 11:04:00,
2013-01-09 05:09:00,54.9,54.0,29.89,NNW,338,8.1,8.1,97,0.00,OVC,,0.00,WeatherDisplay:10.37,2013-01-09 11:09:00,
2013-01-09 05:14:00,54.9,54.0,29.92,NNW,338,8.1,8.1,97,0.00,OVC,,0.00,WeatherDisplay:10.37,2013-01-09 11:14:00,
2013-01-09 05:19:00,54.7,53.8,29.92,NW,315,6.9,6.9,97,0.00,OVC,,0.00,WeatherDisplay:10.37,2013-01-09 11:19:00,
2013-01-09 05:24:00,54.7,53.8,29.92,WNW,292,9.2,9.2,97,0.00,-RA,,0.00,WeatherDisplay:10.37,2013-01-09 11:24:00,
2013-01-09 05:29:00,54.7,53.8,29.95,NW,315,4.6,4.6,97,0.00,-RA,,0.00,WeatherDisplay:10.37,2013-01-09 11:29:00,
2013-01-09 05:34:00,54.7,53.8,29.95,NNW,338,5.8,5.8,97,0.00,-RA,,0.00,WeatherDisplay:10.37,2013-01-09 11:34:00,
2013-01-09 05:39:00,54.9,54.0,29.95,North,0,3.5,3.5,97,0.00,-RA,,0.00,WeatherDisplay:10.37,2013-01-09 11:39:00,
2013-01-09 05:44:00,54.9,54.0,29.95,WNW,292,3.5,3.5,97,0.00,-DZ,,0.00,WeatherDisplay:10.37,2013-01-09 11:44:00,
2013-01-09 05:49:00,54.9,54.0,29.95,NW,315,3.5,3.5,97,0.00,-DZ,,0.00,WeatherDisplay:10.37,2013-01-09 11:49:00,
2013-01-09 05:54:00,54.9,54.0,29.95,NW,315,4.6,4.6,97,0.00,-DZ,,0.00,WeatherDisplay:10.37,2013-01-09 11:54:00,
2013-01-09 05:59:00,54.9,54.0,29.95,NW,315,4.6,4.6,97,0.00,-DZ,,0.00,WeatherDisplay:10.37,2013-01-09 11:59:00,
2013-01-09 06:04:00,54.9,54.0,29.95,NNW,338,4.6,4.6,97,0.00,OVC,,0.00,WeatherDisplay:10.37,2013-01-09 12:04:00,
2013-01-09 06:09:00,54.9,54.0,29.95,NNE,22,2.3,2.3,97,0.00,OVC,,0.00,WeatherDisplay:10.37,2013-01-09 12:09:00,
2013-01-09 06:14:00,54.9,54.0,29.95,NW,315,6.9,6.9,97,0.00,OVC,,0.00,WeatherDisplay:10.37,2013-01-09 12:14:00,
2013-01-09 06:19:00,54.9,54.0,29.95,SE,135,2.3,2.3,97,0.00,OVC,,0.00,WeatherDisplay:10.37,2013-01-09 12:19:00,
2013-01-09 06:24:00,54.9,54.0,29.95,SE,135,2.3,2.3,97,0.00,-DZ,,0.00,WeatherDisplay:10.37,2013-01-09 12:24:00,
2013-01-09 06:29:00,54.9,54.0,29.98,WSW,248,3.5,3.5,97,0.00,-DZ,,0.00,WeatherDisplay:10.37,2013-01-09 12:29:00,
2013-01-09 06:34:00,54.9,54.0,29.98,WNW,292,4.6,4.6,97,0.00,-DZ,,0.00,WeatherDisplay:10.37,2013-01-09 12:34:00,
2013-01-09 06:39:00,54.9,54.0,29.98,NW,315,3.5,3.5,97,0.00,-DZ,,0.00,WeatherDisplay:10.37,2013-01-09 12:39:00,
2013-01-09 06:44:00,54.9,54.0,29.98,WNW,292,4.6,4.6,97,0.00, +RA,,0.00,WeatherDisplay:10.37,2013-01-09 12:44:00,
2013-01-09 06:49:00,54.9,54.0,29.98,NNE,22,4.6,4.9,97,0.00, +RA,,0.00,WeatherDisplay:10.37,2013-01-09 12:49:00,
2013-01-09 06:54:00,55.0,54.2,29.98,NNW,338,3.5,3.5,97,0.00, +RA,,0.00,WeatherDisplay:10.37,2013-01-09 12:54:00,
2013-01-09 06:59:00,55.0,54.2,29.98,West,270,3.5,3.5,97,0.00, +RA,,0.00,WeatherDisplay:10.37,2013-01-09 12:59:00,
2013-01-09 07:04:00,55.0,54.2,29.98,WNW,292,4.6,4.6,97,0.00,OVC,,0.00,WeatherDisplay:10.37,2013-01-09 13:04:00,
2013-01-09 07:09:00,55.0,54.2,29.98,WNW,292,3.5,3.5,97,0.00,OVC,,0.00,WeatherDisplay:10.37,2013-01-09 13:09:00,
2013-01-09 07:14:00,55.0,54.2,29.95,WSW,248,4.6,4.6,97,0.00,OVC,,0.00,WeatherDisplay:10.37,2013-01-09 13:14:00,
2013-01-09 07:19:00,55.2,54.4,29.95,SW,225,3.5,3.5,97,0.00,OVC,,0.00,WeatherDisplay:10.37,2013-01-09 13:19:00,
2013-01-09 07:24:00,55.2,54.4,29.95,SW,225,4.6,4.6,97,0.00,OVC,,0.00,WeatherDisplay:10.37,2013-01-09 13:24:00,
2013-01-09 07:29:00,55.2,54.4,29.98,SW,225,6.4,6.4,97,0.00,OVC,,0.00,WeatherDisplay:10.37,2013-01-09 13:29:00,
2013-01-09 07:34:00,55.4,54.6,29.98,SW,225,5.8,5.8,97,0.00,OVC,,0.00,WeatherDisplay:10.37,2013-01-09 13:34:00,
2013-01-09 07:39:00,55.4,54.6,29.98,West,270,4.6,4.6,97,0.00,OVC,,0.00,WeatherDisplay:10.37,2013-01-09 13:39:00,
2013-01-09 07:44:00,55.4,54.6,30.04,WSW,248,2.3,2.4,97,0.00,OVC,,0.00,WeatherDisplay:10.37,2013-01-09 13:44:00,
2013-01-09 07:49:00,55.4,54.6,30.04,West,270,3.6,3.6,97,0.00,OVC,,0.00,WeatherDisplay:10.37,2013-01-09 13:49:00,
2013-01-09 07:54:00,55.6,54.7,30.04,West,270,4.6,4.6,97,0.00,OVC,,0.00,WeatherDisplay:10.37,2013-01-09 13:54:00,
2013-01-09 07:59:00,55.6,54.7,30.04,West,270,0.0,0.0,97,0.00,OVC,,0.00,WeatherDisplay:10.37,2013-01-09 13:59:00,
2013-01-09 08:04:00,55.6,54.7,30.04,NE,45,4.5,4.5,97,0.00, +RA,,0.00,WeatherDisplay:10.37,2013-01-09 14:04:00,
2013-01-09 08:09:00,55.8,54.9,30.04,NNE,22,4.6,4.6,97,0.00, +RA,,0.00,WeatherDisplay:10.37,2013-01-09 14:09:00,
2013-01-09 08:14:00,55.8,54.9,30.01,NE,45,6.9,6.9,97,0.00, +RA,,0.00,WeatherDisplay:10.37,2013-01-09 14:14:00,
2013-01-09 08:19:00,55.9,55.1,30.01,North,0,5.8,5.8,97,0.00, +RA,,0.00,WeatherDisplay:10.37,2013-01-09 14:19:00,
2013-01-09 08:24:00,55.9,55.1,30.01,NNW,338,4.6,4.7,97,0.00,OVC,,0.00,WeatherDisplay:10.37,2013-01-09 14:24:00,
2013-01-09 08:29:00,56.1,55.3,29.98,NNW,338,5.8,5.8,97,0.00,OVC,,0.00,WeatherDisplay:10.37,2013-01-09 14:29:00,
2013-01-09 08:34:00,56.1,55.3,29.98,North,0,5.8,5.8,97,0.00,OVC,,0.00,WeatherDisplay:10.37,2013-01-09 14:34:00,
2013-01-09 08:39:00,56.1,55.3,29.98,NNE,22,6.9,6.9,97,0.00,OVC,,0.00,WeatherDisplay:10.37,2013-01-09 14:39:00,
2013-01-09 08:44:00,56.1,55.3,29.95,NNW,338,8.1,8.1,97,0.00,-RA,,0.00,WeatherDisplay:10.37,2013-01-09 14:44:00,
2013-01-09 08:49:00,56.1,55.3,29.95,NE,45,5.8,5.8,97,0.00,-RA,,0.00,WeatherDisplay:10.37,2013-01-09 14:49:00,
2013-01-09 08:54:00,56.1,55.3,29.95,NW,315,3.5,3.5,97,0.00,-RA,,0.00,WeatherDisplay:10.37,2013-01-09 14:54:00,
2013-01-09 08:59:00,56.3,55.5,30.01,NNE,22,5.8,5.8,97,0.00,-RA,,0.00,WeatherDisplay:10.37,2013-01-09 14:59:00,
2013-01-09 09:04:00,56.3,55.5,30.01,North,0,5.8,5.8,97,0.00,-RA,,0.00,WeatherDisplay:10.37,2013-01-09 15:04:00,
2013-01-09 09:09:00,56.5,55.6,30.01,North,0,8.1,8.1,97,0.00,-RA,,0.00,WeatherDisplay:10.37,2013-01-09 15:09:00,
2013-01-09 09:14:00,56.7,55.8,29.98,NE,45,5.8,5.8,97,0.00,-RA,,0.00,WeatherDisplay:10.37,2013-01-09 15:14:00,
2013-01-09 09:19:00,56.8,56.0,29.98,North,0,10.4,10.4,97,0.00,-RA,,0.00,WeatherDisplay:10.37,2013-01-09 15:19:00,
2013-01-09 09:25:00,57.0,56.2,29.98,North,0,9.2,9.2,97,0.00,-RA,,0.00,WeatherDisplay:10.37,2013-01-09 15:25:00,
2013-01-09 09:30:00,57.4,56.5,29.95,North,0,9.2,9.2,97,0.00,-RA,,0.00,WeatherDisplay:10.37,2013-01-09 15:30:00,
2013-01-09 09:35:00,57.6,56.7,29.95,NW,315,10.9,10.9,97,0.00,-RA,,0.00,WeatherDisplay:10.37,2013-01-09 15:35:00,
2013-01-09 09:40:00,57.6,56.7,29.95,West,270,8.1,8.1,97,0.00,-RA,,0.00,WeatherDisplay:10.37,2013-01-09 15:40:00,
2013-01-09 09:45:00,57.7,56.9,29.98,East,90,8.1,8.1,97,0.00,-RA,,0.00,WeatherDisplay:10.37,2013-01-09 15:45:00,
2013-01-09 09:50:00,57.9,57.1,29.98,North,0,8.1,8.1,97,0.00,-RA,,0.00,WeatherDisplay:10.37,2013-01-09 15:50:00,
2013-01-09 09:55:00,57.9,57.1,29.98,North,0,4.6,4.6,97,0.00,-RA,,0.00,WeatherDisplay:10.37,2013-01-09 15:55:00,
2013-01-09 10:00:00,57.9,57.1,30.01,East,90,5.8,5.8,97,0.00,-RA,,0.00,WeatherDisplay:10.37,2013-01-09 16:00:00,
2013-01-09 10:05:00,57.9,57.1,30.01,NNE,22,5.8,5.8,97,0.00,SCT,,0.00,WeatherDisplay:10.37,2013-01-09 16:05:00,
2013-01-09 10:10:00,58.1,57.3,30.01,NNW,338,5.8,5.8,97,0.00,SCT,,0.00,WeatherDisplay:10.37,2013-01-09 16:10:00,
2013-01-09 10:15:00,58.1,57.3,30.01,NE,45,5.8,5.8,97,0.00,SCT,,0.00,WeatherDisplay:10.37,2013-01-09 16:15:00,
2013-01-09 10:20:00,57.9,57.1,30.01,ENE,68,8.1,8.1,97,0.00,SCT,,0.00,WeatherDisplay:10.37,2013-01-09 16:20:00,
2013-01-09 10:25:00,58.1,57.3,30.01,NNW,338,8.1,8.1,97,0.00,BKN,,0.00,WeatherDisplay:10.37,2013-01-09 16:25:00,
2013-01-09 10:30:00,58.1,57.3,29.98,North,0,11.5,11.5,97,0.00,BKN,,0.00,WeatherDisplay:10.37,2013-01-09 16:30:00,
2013-01-09 10:35:00,58.1,57.3,29.98,North,0,9.2,9.2,97,0.00,BKN,,0.00,WeatherDisplay:10.37,2013-01-09 16:35:00,
2013-01-09 10:40:00,58.1,57.3,29.98,North,0,12.7,12.7,97,0.00,BKN,,0.00,WeatherDisplay:10.37,2013-01-09 16:40:00,
2013-01-09 10:45:00,58.1,57.3,29.92,North,0,8.1,8.1,97,0.00,-RA,,0.00,WeatherDisplay:10.37,2013-01-09 16:45:00,
2013-01-09 10:50:00,58.1,57.3,29.92,North,0,8.1,8.7,97,0.00,-RA,,0.00,WeatherDisplay:10.37,2013-01-09 16:50:00,
2013-01-09 10:55:00,58.3,57.4,29.92,NNW,338,9.2,9.2,97,0.00,-RA,,0.00,WeatherDisplay:10.37,2013-01-09 16:55:00,
2013-01-09 11:00:00,58.5,57.6,29.89,NNE,22,10.4,10.4,97,0.00,BKN,,0.00,WeatherDisplay:10.37,2013-01-09 17:00:00,
2013-01-09 11:05:00,58.6,57.8,29.89,NNE,22,10.4,10.4,97,0.00,BKN,,0.00,WeatherDisplay:10.37,2013-01-09 17:05:00,
2013-01-09 11:10:00,58.8,58.0,29.89,NNW,338,10.4,10.4,97,0.00,BKN,,0.00,WeatherDisplay:10.37,2013-01-09 17:10:00,
2013-01-09 11:15:00,59.0,58.2,29.92,NNE,22,8.1,8.1,97,0.00,BKN,,0.00,WeatherDisplay:10.37,2013-01-09 17:15:00,
2013-01-09 11:20:00,59.4,58.5,29.92,North,0,5.8,6.2,97,0.00,BKN,,0.00,WeatherDisplay:10.37,2013-01-09 17:20:00,
2013-01-09 11:25:00,59.5,58.7,29.92,ENE,68,5.8,5.8,97,0.00,SCT,,0.00,WeatherDisplay:10.37,2013-01-09 17:25:00,
2013-01-09 11:30:00,59.7,58.9,29.92,ENE,68,5.8,5.8,97,0.00,SCT,,0.00,WeatherDisplay:10.37,2013-01-09 17:30:00,
2013-01-09 11:35:00,59.9,59.0,29.92,NE,45,5.8,5.8,97,0.00,SCT,,0.00,WeatherDisplay:10.37,2013-01-09 17:35:00,
2013-01-09 11:40:00,60.1,59.2,29.92,North,0,8.1,8.1,97,0.00,SCT,,0.00,WeatherDisplay:10.37,2013-01-09 17:40:00,
2013-01-09 11:45:00,60.4,59.6,29.98,SE,135,2.3,2.3,97,0.00,CLR,,0.00,WeatherDisplay:10.37,2013-01-09 17:45:00,
2013-01-09 11:50:00,60.8,59.9,29.98,SSW,202,5.8,5.8,97,0.00,CLR,,0.00,WeatherDisplay:10.37,2013-01-09 17:50:00,
2013-01-09 11:55:00,60.8,59.9,29.98,East,90,3.5,3.5,97,0.00,CLR,,0.00,WeatherDisplay:10.37,2013-01-09 17:55:00,
2013-01-09 12:00:00,61.3,60.5,29.92,NW,315,3.5,3.5,97,0.00,SCT,,0.00,WeatherDisplay:10.37,2013-01-09 18:00:00,
2013-01-09 12:05:00,62.2,61.4,29.92,SSW,202,3.5,3.5,97,0.00,SCT,,0.00,WeatherDisplay:10.37,2013-01-09 18:05:00,
2013-01-09 12:10:00,61.9,61.0,29.92,SSW,202,3.5,3.5,97,0.00,SCT,,0.00,WeatherDisplay:10.37,2013-01-09 18:10:00,
2013-01-09 12:15:00,61.9,61.0,29.95,South,180,4.6,4.6,97,0.00,SCT,,0.00,WeatherDisplay:10.37,2013-01-09 18:15:00,
2013-01-09 12:20:00,61.7,60.8,29.95,SSW,202,3.5,3.5,97,0.00,BKN,,0.00,WeatherDisplay:10.37,2013-01-09 18:20:00,
2013-01-09 12:25:00,61.5,60.7,29.95,SW,225,3.5,3.5,97,0.00,BKN,,0.00,WeatherDisplay:10.37,2013-01-09 18:25:00,
2013-01-09 12:30:00,61.9,61.0,29.95,SSW,202,2.3,2.4,97,0.00,BKN,,0.00,WeatherDisplay:10.37,2013-01-09 18:30:00,
2013-01-09 12:35:00,61.9,61.0,29.95,SSW,202,3.5,3.8,97,0.00,BKN,,0.00,WeatherDisplay:10.37,2013-01-09 18:35:00,
2013-01-09 12:40:00,62.2,61.4,29.95,SE,135,2.3,2.3,97,0.00,OVC,,0.00,WeatherDisplay:10.37,2013-01-09 18:40:00,
2013-01-09 12:41:00,62.4,61.6,29.95,SSW,202,2.3,2.3,97,0.00,OVC,,0.00,WeatherDisplay:10.37,2013-01-09 18:41:00,
2013-01-09 12:42:00,62.4,61.6,29.95,SSW,202,3.5,3.5,97,0.00,OVC,,0.00,WeatherDisplay:10.37,2013-01-09 18:42:00,
2013-01-09 12:44:00,62.4,61.6,29.89,SSW,202,2.3,2.4,97,0.00,OVC,,0.00,WeatherDisplay:10.37,2013-01-09 18:44:00,
2013-01-09 12:48:00,62.4,61.6,29.89,SW,225,4.6,4.6,97,0.00,OVC,,0.00,WeatherDisplay:10.37,2013-01-09 18:48:00,
2013-01-09 12:53:00,62.2,61.4,29.89,SSW,202,4.6,4.6,97,0.00,OVC,,0.00,WeatherDisplay:10.37,2013-01-09 18:53:00,
2013-01-09 12:58:00,62.6,61.7,29.92,SW,225,4.6,4.6,97,0.00,OVC,,0.00,WeatherDisplay:10.37,2013-01-09 18:58:00,
2013-01-09 13:03:00,63.1,62.3,29.92,South,180,4.3,4.3,97,0.00,OVC,,0.00,WeatherDisplay:10.37,2013-01-09 19:03:00,
2013-01-09 13:08:00,62.6,61.7,29.92,SSW,202,5.8,5.8,97,0.00,OVC,,0.00,WeatherDisplay:10.37,2013-01-09 19:08:00,
2013-01-09 13:13:00,62.8,61.9,29.92,SSW,202,3.5,3.5,97,0.00,OVC,,0.00,WeatherDisplay:10.37,2013-01-09 19:13:00,
2013-01-09 13:18:00,62.6,61.7,29.92,SSW,202,4.6,4.6,97,0.00,OVC,,0.00,WeatherDisplay:10.37,2013-01-09 19:18:00,
2013-01-09 13:23:00,62.6,61.7,29.92,South,180,5.8,5.8,97,0.00,OVC,,0.00,WeatherDisplay:10.37,2013-01-09 19:23:00,
2013-01-09 13:28:00,64.0,63.2,29.92,SSW,202,3.5,3.8,97,0.00,OVC,,0.00,WeatherDisplay:10.37,2013-01-09 19:28:00,
2013-01-09 13:33:00,64.6,63.7,29.92,SW,225,4.6,4.6,97,0.00,OVC,,0.00,WeatherDisplay:10.37,2013-01-09 19:33:00,
2013-01-09 13:38:00,65.3,64.4,29.92,WSW,248,4.6,4.6,97,0.00,OVC,,0.00,WeatherDisplay:10.37,2013-01-09 19:38:00,
2013-01-09 13:43:00,65.3,64.4,29.92,WSW,248,3.5,3.5,97,0.00,OVC,,0.00,WeatherDisplay:10.37,2013-01-09 19:43:00,
2013-01-09 13:48:00,66.0,65.1,29.92,South,180,3.5,3.5,97,0.00,OVC,,0.00,WeatherDisplay:10.37,2013-01-09 19:48:00,
2013-01-09 13:53:00,67.8,66.9,29.92,West,270,3.5,3.5,97,0.00,OVC,,0.00,WeatherDisplay:10.37,2013-01-09 19:53:00,
2013-01-09 13:58:00,66.6,65.7,29.92,SSW,202,3.5,3.5,97,0.00,OVC,,0.00,WeatherDisplay:10.37,2013-01-09 19:58:00,
2013-01-09 14:03:00,66.2,65.3,29.92,WNW,292,4.3,4.3,97,0.00,OVC,,0.00,WeatherDisplay:10.37,2013-01-09 20:03:00,
2013-01-09 14:08:00,65.7,64.8,29.92,SSW,202,3.5,3.5,97,0.00,OVC,,0.00,WeatherDisplay:10.37,2013-01-09 20:08:00,
2013-01-09 14:13:00,65.5,64.6,29.92,SE,135,2.3,2.3,97,0.00,OVC,,0.00,WeatherDisplay:10.37,2013-01-09 20:13:00,
2013-01-09 14:18:00,65.1,64.2,29.92,SSW,202,3.5,3.5,97,0.00,OVC,,0.00,WeatherDisplay:10.37,2013-01-09 20:18:00,
2013-01-09 14:23:00,64.8,63.9,29.92,SSW,202,4.6,4.6,97,0.00,OVC,,0.00,WeatherDisplay:10.37,2013-01-09 20:23:00,
2013-01-09 14:28:00,64.8,63.9,29.92,SSW,202,4.6,4.6,97,0.00,OVC,,0.00,WeatherDisplay:10.37,2013-01-09 20:28:00,
2013-01-09 14:33:00,65.3,64.4,29.92,SW,225,5.8,5.8,97,0.00,OVC,,0.00,WeatherDisplay:10.37,2013-01-09 20:33:00,
2013-01-09 14:38:00,65.1,64.2,29.92,SSW,202,4.7,4.7,97,0.00,OVC,,0.00,WeatherDisplay:10.37,2013-01-09 20:38:00,
2013-01-09 14:43:00,65.1,64.2,29.92,SW,225,4.6,4.6,97,0.00,OVC,,0.00,WeatherDisplay:10.37,2013-01-09 20:43:00,
2013-01-09 14:48:00,65.1,99.9,29.92,SSW,202,3.5,3.5,124,0.00,OVC,,0.00,WeatherDisplay:10.37,2013-01-09 20:48:00,
2013-01-09 14:54:00,65.8,65.0,29.92,SSW,202,5.8,5.8,97,4.30,RA,,4.30,WeatherDisplay:10.37,2013-01-09 20:54:00,
2013-01-09 14:59:00,65.5,53.8,29.89,SSW,202,5.8,5.8,66,4.30,RA,,4.30,WeatherDisplay:10.37,2013-01-09 20:59:00,
2013-01-09 15:04:00,65.7,99.9,29.89,South,180,3.5,3.5,124,4.30,OVC,,4.30,WeatherDisplay:10.37,2013-01-09 21:04:00,
2013-01-09 15:09:00,65.5,47.4,29.89,SW,225,6.9,6.9,52,4.30,OVC,,4.30,WeatherDisplay:10.37,2013-01-09 21:09:00,
2013-01-09 15:14:00,65.3,47.2,29.92,SSW,202,4.6,4.6,52,4.30,OVC,,4.30,WeatherDisplay:10.37,2013-01-09 21:14:00,
2013-01-09 15:19:00,65.3,47.2,29.92,SW,225,5.8,5.8,52,4.30,OVC,,4.30,WeatherDisplay:10.37,2013-01-09 21:19:00,
2013-01-09 15:24:00,65.3,47.2,29.92,WSW,248,3.5,3.5,52,4.30,BKN,,4.30,WeatherDisplay:10.37,2013-01-09 21:24:00,
2013-01-09 15:29:00,64.8,46.7,29.95,SSW,202,2.3,2.4,52,4.30,BKN,,4.30,WeatherDisplay:10.37,2013-01-09 21:29:00,
2013-01-09 15:34:00,64.4,46.4,29.95,SSW,202,5.8,5.8,52,4.30,BKN,,4.30,WeatherDisplay:10.37,2013-01-09 21:34:00,
2013-01-09 15:39:00,63.9,45.9,29.95,SSW,202,4.6,4.6,52,4.30,BKN,,4.30,WeatherDisplay:10.37,2013-01-09 21:39:00,
2013-01-09 15:44:00,63.3,45.4,29.95,SSW,202,5.8,5.8,52,4.30,BKN,,4.30,WeatherDisplay:10.37,2013-01-09 21:44:00,
2013-01-09 15:49:00,63.1,45.2,29.95,SW,225,5.8,5.8,52,4.30,BKN,,4.30,WeatherDisplay:10.37,2013-01-09 21:49:00,
2013-01-09 15:54:00,63.1,45.2,29.95,SSW,202,4.6,4.6,52,0.00,BKN,,4.30,WeatherDisplay:10.37,2013-01-09 21:54:00,
2013-01-09 15:59:00,63.0,45.1,29.98,SSW,202,5.8,5.8,52,0.00,BKN,,4.30,WeatherDisplay:10.37,2013-01-09 21:59:00,
2013-01-09 16:04:00,63.0,45.1,29.98,WSW,248,4.6,4.6,52,0.00,OVC,,4.30,WeatherDisplay:10.37,2013-01-09 22:04:00,
2013-01-09 16:09:00,62.6,44.7,29.98,SSW,202,6.9,6.9,52,0.00,OVC,,4.30,WeatherDisplay:10.37,2013-01-09 22:09:00,
2013-01-09 16:14:00,62.6,44.7,29.98,SSW,202,4.6,4.6,52,0.00,OVC,,4.30,WeatherDisplay:10.37,2013-01-09 22:14:00,
2013-01-09 16:19:00,63.0,45.1,29.98,WSW,248,5.4,5.4,52,0.00,OVC,,4.30,WeatherDisplay:10.37,2013-01-09 22:19:00,
2013-01-09 16:24:00,62.8,44.9,29.98,WSW,248,5.8,5.8,52,0.00,OVC,,4.30,WeatherDisplay:10.37,2013-01-09 22:24:00,
2013-01-09 16:29:00,62.6,44.7,29.98,SW,225,5.8,5.8,52,0.00,OVC,,4.30,WeatherDisplay:10.37,2013-01-09 22:29:00,
2013-01-09 16:34:00,62.6,41.5,29.98,WSW,248,5.8,5.8,46,0.00,OVC,,4.30,WeatherDisplay:10.37,2013-01-09 22:34:00,
2013-01-09 16:39:00,62.4,46.0,29.98,SW,225,4.6,4.6,55,0.00,OVC,,4.30,WeatherDisplay:10.37,2013-01-09 22:39:00,
2013-01-09 16:44:00,62.2,41.2,29.98,SW,225,6.9,6.9,46,0.00,OVC,,4.30,WeatherDisplay:10.37,2013-01-09 22:44:00,
2013-01-09 16:49:00,62.1,41.0,29.98,SSW,202,4.6,4.6,46,0.00,OVC,,4.30,WeatherDisplay:10.37,2013-01-09 22:49:00,
2013-01-09 16:54:00,62.1,41.0,29.98,SSW,202,5.8,5.8,46,0.00,OVC,,4.30,WeatherDisplay:10.37,2013-01-09 22:54:00,
2013-01-09 16:59:00,61.9,40.9,29.98,SW,225,4.6,4.6,46,0.00,OVC,,4.30,WeatherDisplay:10.37,2013-01-09 22:59:00,
2013-01-09 17:04:00,61.7,40.7,29.98,SSW,202,5.8,5.8,46,0.00,OVC,,4.30,WeatherDisplay:10.37,2013-01-09 23:04:00,
2013-01-09 17:09:00,61.5,45.2,29.98,SSW,202,4.6,4.6,55,0.00,OVC,,4.30,WeatherDisplay:10.37,2013-01-09 23:09:00,
2013-01-09 17:14:00,61.5,40.5,29.98,SW,225,4.6,4.6,46,0.00,OVC,,4.30,WeatherDisplay:10.37,2013-01-09 23:14:00,
2013-01-09 17:19:00,61.3,40.4,29.98,SW,225,4.6,4.6,46,0.00,OVC,,4.30,WeatherDisplay:10.37,2013-01-09 23:19:00,
2013-01-09 17:24:00,61.2,44.9,29.98,SW,225,3.5,3.5,55,0.00,OVC,,4.30,WeatherDisplay:10.37,2013-01-09 23:24:00,
2013-01-09 17:29:00,60.8,44.5,29.98,SW,225,5.8,5.8,55,0.00,OVC,,4.30,WeatherDisplay:10.37,2013-01-09 23:29:00,
2013-01-09 17:34:00,60.4,44.2,29.98,SW,225,4.6,4.6,55,0.00,OVC,,4.30,WeatherDisplay:10.37,2013-01-09 23:34:00,
2013-01-09 17:39:00,60.1,43.9,29.98,WSW,248,4.6,4.6,55,0.00,OVC,,4.30,WeatherDisplay:10.37,2013-01-09 23:39:00,
2013-01-09 17:44:00,59.9,43.7,29.98,SW,225,4.6,4.6,55,0.00,BKN,,4.30,WeatherDisplay:10.37,2013-01-09 23:44:00,
2013-01-09 17:49:00,59.4,43.2,29.98,SW,225,4.6,4.6,55,0.00,BKN,,4.30,WeatherDisplay:10.37,2013-01-09 23:49:00,